createdAt,value
2018-08-12T00:00:35.697Z,33.87
2018-08-12T00:01:35.599Z,33.20
2018-08-12T00:02:35.093Z,33.20
2018-08-12T00:03:35.215Z,32.93
2018-08-12T00:04:35.484Z,33.01
2018-08-12T00:05:35.190Z,32.44
2018-08-12T00:06:35.118Z,32.65
2018-08-12T00:07:35.009Z,32.65
2018-08-12T00:08:35.287Z,32.34
2018-08-12T00:09:34.973Z,32.06
2018-08-12T00:10:35.101Z,32.15
2018-08-12T00:11:34.934Z,31.29
2018-08-12T00:12:36.225Z,31.01
2018-08-12T00:13:34.903Z,30.55
2018-08-12T00:15:35.405Z,30.35
2018-08-12T00:16:35.031Z,29.97
2018-08-12T00:17:34.913Z,30.07
2018-08-12T00:18:34.978Z,30.16
2018-08-12T00:20:34.796Z,30.26
2018-08-12T00:22:34.803Z,31.21
2018-08-12T00:23:35.578Z,31.12
2018-08-12T00:24:34.781Z,31.40
2018-08-12T00:25:34.782Z,31.40
2018-08-12T00:26:34.892Z,31.88
2018-08-12T00:27:34.725Z,32.17
2018-08-12T00:28:34.885Z,32.36
2018-08-12T00:29:35.101Z,32.65
2018-08-12T00:30:34.845Z,32.55
2018-08-12T00:31:34.699Z,32.65
2018-08-12T00:32:34.651Z,33.03
2018-08-12T00:33:34.646Z,32.93
2018-08-12T00:34:34.616Z,33.12
2018-08-12T00:35:34.896Z,32.84
2018-08-12T00:36:34.682Z,32.65
2018-08-12T00:37:34.504Z,33.70
2018-08-12T00:38:34.487Z,33.70
2018-08-12T00:39:34.472Z,34.46
2018-08-12T00:40:34.459Z,34.46
2018-08-12T00:41:34.734Z,34.65
2018-08-12T00:42:34.662Z,34.55
2018-08-12T00:43:34.404Z,34.75
2018-08-12T00:44:34.509Z,34.75
2018-08-12T00:45:34.372Z,34.75
2018-08-12T00:46:35.707Z,34.75
2018-08-12T00:47:34.764Z,34.46
2018-08-12T00:48:34.397Z,34.84
2018-08-12T00:49:34.302Z,34.36
2018-08-12T00:50:34.290Z,34.65
2018-08-12T00:51:34.315Z,34.65
2018-08-12T00:52:35.609Z,33.98
2018-08-12T00:53:34.539Z,34.27
2018-08-12T00:54:34.219Z,34.27
2018-08-12T00:55:34.297Z,33.89
2018-08-12T00:56:34.183Z,33.89
2018-08-12T00:57:34.555Z,33.60
2018-08-12T00:58:34.584Z,33.60
2018-08-12T00:59:34.506Z,33.22
2018-08-12T01:00:34.282Z,33.41
2018-08-12T01:01:34.487Z,33.41
2018-08-12T01:02:34.398Z,33.41
2018-08-12T01:03:34.084Z,33.70
2018-08-12T01:04:35.308Z,33.89
2018-08-12T01:05:34.643Z,33.31
2018-08-12T01:06:34.518Z,33.22
2018-08-12T01:07:34.206Z,33.22
2018-08-12T01:09:33.977Z,33.31
2018-08-12T01:10:34.109Z,32.84
2018-08-12T01:12:34.231Z,32.74
2018-08-12T01:13:34.226Z,32.74
2018-08-12T01:14:33.938Z,33.50
2018-08-12T01:15:33.936Z,33.60
2018-08-12T01:16:34.019Z,33.31
2018-08-12T01:17:33.836Z,33.70
2018-08-12T01:18:33.991Z,33.60
2018-08-12T01:19:33.800Z,33.22
2018-08-12T01:20:34.426Z,33.03
2018-08-12T01:21:33.764Z,32.93
2018-08-12T01:22:34.024Z,32.74
2018-08-12T01:23:33.918Z,32.93
2018-08-12T01:24:33.764Z,32.93
2018-08-12T01:25:33.973Z,32.84
2018-08-12T01:26:33.681Z,32.26
2018-08-12T01:27:34.317Z,32.45
2018-08-12T01:28:33.700Z,32.45
2018-08-12T01:29:33.690Z,32.36
2018-08-12T01:30:33.822Z,32.36
2018-08-12T01:31:33.705Z,32.36
2018-08-12T01:32:33.691Z,32.06
2018-08-12T01:33:33.571Z,32.07
2018-08-12T01:34:34.053Z,32.07
2018-08-12T01:35:33.535Z,32.26
2018-08-12T01:36:33.871Z,32.07
2018-08-12T01:38:33.541Z,32.26
2018-08-12T01:39:33.464Z,32.26
2018-08-12T01:40:33.608Z,32.44
2018-08-12T01:41:33.811Z,32.55
2018-08-12T01:42:33.732Z,31.98
2018-08-12T01:43:33.721Z,32.45
2018-08-12T01:44:33.381Z,32.53
2018-08-12T01:46:33.416Z,32.73
2018-08-12T01:49:33.499Z,31.87
2018-08-12T01:51:33.278Z,30.82
2018-08-12T01:52:33.560Z,30.05
2018-08-12T01:53:33.250Z,29.77
2018-08-12T01:54:33.522Z,29.19
2018-08-12T01:55:33.254Z,28.81
2018-08-12T01:58:37.847Z,28.24
2018-08-12T02:00:33.421Z,27.76
2018-08-12T02:02:33.089Z,27.67
2018-08-12T02:03:33.071Z,27.57
2018-08-12T02:04:33.353Z,27.28
2018-08-12T02:05:33.037Z,27.00
2018-08-12T02:06:33.421Z,27.19
2018-08-12T02:07:33.452Z,27.48
2018-08-12T02:09:33.067Z,27.76
2018-08-12T02:10:33.788Z,27.76
2018-08-12T02:11:32.927Z,28.14
2018-08-12T02:12:33.214Z,27.86
2018-08-12T02:13:33.233Z,28.05
2018-08-12T02:14:32.873Z,27.09
2018-08-12T02:15:32.862Z,27.09
2018-08-12T02:16:32.992Z,26.81
2018-08-12T02:17:32.822Z,26.72
2018-08-12T02:18:33.109Z,27.00
2018-08-12T02:19:32.960Z,26.72
2018-08-12T02:20:32.777Z,26.33
2018-08-12T02:21:32.753Z,27.28
2018-08-12T02:22:32.901Z,26.43
2018-08-12T02:23:32.721Z,27.48
2018-08-12T02:25:32.716Z,26.43
2018-08-12T02:26:32.876Z,26.43
2018-08-12T02:27:32.724Z,26.72
2018-08-12T02:28:32.838Z,27.09
2018-08-12T02:29:32.619Z,27.38
2018-08-12T02:30:32.899Z,27.19
2018-08-12T02:33:33.034Z,28.14
2018-08-12T02:35:33.897Z,28.81
2018-08-12T02:36:32.800Z,29.38
2018-08-12T02:37:32.772Z,29.96
2018-08-12T02:38:32.475Z,30.72
2018-08-12T02:39:32.447Z,31.20
2018-08-12T02:40:32.433Z,31.77
2018-08-12T02:41:32.569Z,31.39
2018-08-12T02:42:32.792Z,31.58
2018-08-12T02:43:32.864Z,31.18
2018-08-12T02:44:32.460Z,31.37
2018-08-12T02:47:32.560Z,30.04
2018-08-12T02:48:32.302Z,29.47
2018-08-12T02:50:32.672Z,28.61
2018-08-12T02:51:32.525Z,28.32
2018-08-12T02:52:32.239Z,28.13
2018-08-12T02:53:35.391Z,28.23
2018-08-12T02:55:32.475Z,27.84
2018-08-12T02:56:32.163Z,28.03
2018-08-12T02:58:32.709Z,28.13
2018-08-12T02:59:32.219Z,27.84
2018-08-12T03:00:32.093Z,27.75
2018-08-12T03:01:32.072Z,27.66
2018-08-12T03:02:32.053Z,27.47
2018-08-12T03:03:32.340Z,27.37
2018-08-12T03:04:32.020Z,27.18
2018-08-12T03:05:32.210Z,27.08
2018-08-12T03:06:31.989Z,26.89
2018-08-12T03:07:31.981Z,26.70
2018-08-12T03:08:31.953Z,26.89
2018-08-12T03:09:31.991Z,27.37
2018-08-12T03:10:32.269Z,27.18
2018-08-12T03:11:32.050Z,27.27
2018-08-12T03:12:31.935Z,27.27
2018-08-12T03:13:31.868Z,26.98
2018-08-12T03:15:31.834Z,27.75
2018-08-12T03:16:32.081Z,27.66
2018-08-12T03:17:32.201Z,27.75
2018-08-12T03:18:31.791Z,27.94
2018-08-12T03:19:31.762Z,28.42
2018-08-12T03:20:31.771Z,28.23
2018-08-12T03:21:31.729Z,28.13
2018-08-12T03:23:31.913Z,28.42
2018-08-12T03:25:31.970Z,28.23
2018-08-12T03:26:31.658Z,28.23
2018-08-12T03:27:31.627Z,28.13
2018-08-12T03:28:31.608Z,27.84
2018-08-12T03:29:31.743Z,27.94
2018-08-12T03:30:31.583Z,28.23
2018-08-12T03:31:31.860Z,28.03
2018-08-12T03:32:31.850Z,27.94
2018-08-12T03:33:31.705Z,28.03
2018-08-12T03:34:31.508Z,28.03
2018-08-12T03:35:31.841Z,28.13
2018-08-12T03:36:31.475Z,28.03
2018-08-12T03:38:31.790Z,28.23
2018-08-12T03:39:31.425Z,28.32
2018-08-12T03:40:31.409Z,28.42
2018-08-12T03:41:31.585Z,28.70
2018-08-12T03:42:31.481Z,28.51
2018-08-12T03:43:31.349Z,28.61
2018-08-12T03:44:31.636Z,28.89
2018-08-12T03:45:31.324Z,28.99
2018-08-12T03:46:31.301Z,28.61
2018-08-12T03:48:31.555Z,28.89
2018-08-12T03:49:31.259Z,28.89
2018-08-12T03:50:32.073Z,28.89
2018-08-12T03:51:31.303Z,28.99
2018-08-12T03:52:31.260Z,29.18
2018-08-12T03:53:31.190Z,29.08
2018-08-12T03:54:31.220Z,29.37
2018-08-12T03:55:31.157Z,29.75
2018-08-12T03:56:31.674Z,29.56
2018-08-12T03:57:31.148Z,29.37
2018-08-12T03:58:31.091Z,29.37
2018-08-12T03:59:31.087Z,29.37
2018-08-12T04:00:31.114Z,29.47
2018-08-12T04:01:31.037Z,29.37
2018-08-12T04:02:31.122Z,29.94
2018-08-12T04:03:31.303Z,29.37
2018-08-12T04:04:31.287Z,29.47
2018-08-12T04:05:30.985Z,29.66
2018-08-12T04:07:31.054Z,30.04
2018-08-12T04:08:30.979Z,30.13
2018-08-12T04:09:31.112Z,30.13
2018-08-12T04:10:31.460Z,29.94
2018-08-12T04:12:30.848Z,30.13
2018-08-12T04:13:30.884Z,30.42
2018-08-12T04:16:30.888Z,30.23
2018-08-12T04:17:31.110Z,31.09
2018-08-12T04:18:30.868Z,30.99
2018-08-12T04:19:30.914Z,31.37
2018-08-12T04:20:30.718Z,31.18
2018-08-12T04:21:30.696Z,31.37
2018-08-12T04:22:30.674Z,31.47
2018-08-12T04:23:30.718Z,31.37
2018-08-12T04:24:30.942Z,31.95
2018-08-12T04:25:31.024Z,32.14
2018-08-12T04:28:30.588Z,32.81
2018-08-12T04:30:30.616Z,32.71
2018-08-12T04:31:30.979Z,33.09
2018-08-12T04:32:30.505Z,33.49
2018-08-12T04:33:30.483Z,33.37
2018-08-12T04:34:30.532Z,33.66
2018-08-12T04:35:30.773Z,33.95
2018-08-12T04:37:30.474Z,34.33
2018-08-12T04:38:30.697Z,34.34
2018-08-12T04:40:30.472Z,34.82
2018-08-12T04:41:30.347Z,34.82
2018-08-12T04:42:30.333Z,35.11
2018-08-12T04:43:30.467Z,35.11
2018-08-12T04:44:30.311Z,35.30
2018-08-12T04:45:30.684Z,35.59
2018-08-12T04:46:30.275Z,35.87
2018-08-12T04:47:30.660Z,36.16
2018-08-12T04:48:30.331Z,36.54
2018-08-12T04:49:30.984Z,37.40
2018-08-12T04:50:30.200Z,37.88
2018-08-12T04:51:30.935Z,38.26
2018-08-12T04:52:31.658Z,38.07
2018-08-12T04:53:30.212Z,38.45
2018-08-12T04:54:30.197Z,39.31
2018-08-12T04:55:30.431Z,39.31
2018-08-12T04:56:30.104Z,39.98
2018-08-12T04:57:30.383Z,40.55
2018-08-12T04:58:30.727Z,40.55
2018-08-12T04:59:30.057Z,40.83
2018-08-12T05:00:30.213Z,41.41
2018-08-12T05:01:30.056Z,41.50
2018-08-12T05:03:29.973Z,42.10
2018-08-12T05:04:30.355Z,42.00
2018-08-12T05:05:29.942Z,42.29
2018-08-12T05:06:29.924Z,42.55
2018-08-12T05:08:29.935Z,43.33
2018-08-12T05:09:29.875Z,43.33
2018-08-12T05:10:30.153Z,43.43
2018-08-12T05:12:29.828Z,44.20
2018-08-12T05:13:29.808Z,45.63
2018-08-12T05:14:29.944Z,46.77
2018-08-12T05:15:29.782Z,47.94
2018-08-12T05:16:30.056Z,47.94
2018-08-12T05:17:30.036Z,49.09
2018-08-12T05:18:29.726Z,50.04
2018-08-12T05:19:29.743Z,50.33
2018-08-12T05:21:29.719Z,53.58
2018-08-12T05:23:29.637Z,56.35
2018-08-12T05:24:29.965Z,57.62
2018-08-12T05:25:29.610Z,59.63
2018-08-12T05:26:29.591Z,60.20
2018-08-12T05:27:29.668Z,60.39
2018-08-12T05:28:29.859Z,63.35
2018-08-12T05:29:29.547Z,63.16
2018-08-12T05:31:29.513Z,65.17
2018-08-12T05:32:29.487Z,66.22
2018-08-12T05:33:29.569Z,66.31
2018-08-12T05:34:29.454Z,67.97
2018-08-12T05:36:29.726Z,68.64
2018-08-12T05:37:29.404Z,69.50
2018-08-12T05:39:29.425Z,67.88
2018-08-12T05:40:29.357Z,69.70
2018-08-12T05:41:29.340Z,69.89
2018-08-12T05:42:29.424Z,73.33
2018-08-12T05:43:29.608Z,76.52
2018-08-12T05:44:29.298Z,75.37
2018-08-12T05:45:29.343Z,77.57
2018-08-12T05:46:29.263Z,76.42
2018-08-12T05:47:29.244Z,80.06
2018-08-12T05:48:29.269Z,78.53
2018-08-12T05:49:29.215Z,78.43
2018-08-12T05:50:29.248Z,78.57
2018-08-12T05:51:29.377Z,80.00
2018-08-12T05:52:29.174Z,81.44
2018-08-12T05:58:29.081Z,83.26
2018-08-12T05:59:29.361Z,84.22
2018-08-12T06:00:29.214Z,83.83
2018-08-12T06:01:29.029Z,83.83
2018-08-12T06:02:29.021Z,82.87
2018-08-12T06:04:29.288Z,84.41
2018-08-12T06:05:28.980Z,84.59
2018-08-12T06:06:29.060Z,85.65
2018-08-12T06:08:28.939Z,85.69
2018-08-12T06:09:29.016Z,85.79
2018-08-12T06:10:28.900Z,88.37
2018-08-12T06:11:29.177Z,87.80
2018-08-12T06:13:28.929Z,87.90
2018-08-12T06:14:28.838Z,88.28
2018-08-12T06:15:28.885Z,87.80
2018-08-12T06:16:28.818Z,87.41
2018-08-12T06:17:28.837Z,87.99
2018-08-12T06:18:29.073Z,88.47
2018-08-12T06:19:28.763Z,89.72
2018-08-12T06:20:28.742Z,90.14
2018-08-12T06:21:28.880Z,89.18
2018-08-12T06:22:29.476Z,95.12
2018-08-12T06:23:28.798Z,92.73
2018-08-12T06:24:29.675Z,93.11
2018-08-12T06:27:28.814Z,92.92
2018-08-12T06:29:28.615Z,92.35
2018-08-12T06:30:29.063Z,92.44
2018-08-12T06:31:29.211Z,92.35
2018-08-12T06:32:28.574Z,95.75
2018-08-12T06:33:28.724Z,95.17
2018-08-12T06:34:28.755Z,95.84
2018-08-12T06:35:28.689Z,96.42
2018-08-12T06:36:28.822Z,98.43
2018-08-12T06:37:28.501Z,97.38
2018-08-12T06:38:28.484Z,95.75
2018-08-12T06:39:28.524Z,96.80
2018-08-12T06:40:28.487Z,99.99
2018-08-12T06:41:28.448Z,98.48
2018-08-12T06:42:28.726Z,99.05
2018-08-12T06:43:28.423Z,99.99
2018-08-12T06:44:28.451Z,99.99
2018-08-12T06:47:28.473Z,97.52
2018-08-12T06:48:28.345Z,99.99
2018-08-12T06:49:28.627Z,99.99
2018-08-12T06:50:28.311Z,99.99
2018-08-12T06:52:28.332Z,99.99
2018-08-12T06:53:28.422Z,99.99
2018-08-12T06:54:28.261Z,99.99
2018-08-12T06:55:28.625Z,99.99
2018-08-12T06:56:28.233Z,99.99
2018-08-12T06:57:28.417Z,99.99
2018-08-12T06:58:28.202Z,99.99
2018-08-12T07:00:28.329Z,99.99
2018-08-12T07:01:28.159Z,99.99
2018-08-12T07:02:28.449Z,99.99
2018-08-12T07:03:28.132Z,99.99
2018-08-12T07:04:28.121Z,99.99
2018-08-12T07:05:28.109Z,99.99
2018-08-12T07:07:28.136Z,99.99
2018-08-12T07:08:28.097Z,99.99
2018-08-12T07:09:28.354Z,99.99
2018-08-12T07:10:28.039Z,99.99
2018-08-12T07:11:28.223Z,99.99
2018-08-12T07:12:28.013Z,99.99
2018-08-12T07:13:28.049Z,99.99
2018-08-12T07:15:27.973Z,99.99
2018-08-12T07:16:28.293Z,99.99
2018-08-12T07:18:27.937Z,99.99
2018-08-12T07:20:28.062Z,99.99
2018-08-12T07:21:27.894Z,99.99
2018-08-12T07:22:27.897Z,99.99
2018-08-12T07:23:28.171Z,99.99
2018-08-12T07:24:27.850Z,99.99
2018-08-12T07:25:28.009Z,99.99
2018-08-12T07:26:28.088Z,99.99
2018-08-12T07:27:27.873Z,99.99
2018-08-12T07:28:27.870Z,99.99
2018-08-12T07:29:27.899Z,99.99
2018-08-12T07:30:28.094Z,99.99
2018-08-12T07:31:27.768Z,99.99
2018-08-12T07:32:28.002Z,99.99
2018-08-12T07:33:28.097Z,98.72
2018-08-12T07:34:27.734Z,96.90
2018-08-12T07:37:27.990Z,94.25
2018-08-12T07:38:27.837Z,94.64
2018-08-12T07:39:27.764Z,95.89
2018-08-12T07:40:27.664Z,93.62
2018-08-12T07:41:27.655Z,93.91
2018-08-12T07:42:27.736Z,90.83
2018-08-12T07:43:27.632Z,88.71
2018-08-12T07:44:28.412Z,87.46
2018-08-12T07:45:27.701Z,89.92
2018-08-12T07:48:27.621Z,91.27
2018-08-12T07:49:27.643Z,87.70
2018-08-12T07:50:27.690Z,90.50
2018-08-12T07:51:27.827Z,83.56
2018-08-12T07:52:27.518Z,83.66
2018-08-12T07:53:27.520Z,83.47
2018-08-12T07:54:27.850Z,83.37
2018-08-12T07:55:27.564Z,82.70
2018-08-12T07:56:27.535Z,84.33
2018-08-12T07:58:27.755Z,82.64
2018-08-12T07:59:27.426Z,79.85
2018-08-12T08:00:27.432Z,80.91
2018-08-12T08:01:27.409Z,78.88
2018-08-12T08:02:27.544Z,76.57
2018-08-12T08:03:27.766Z,76.67
2018-08-12T08:04:27.679Z,77.38
2018-08-12T08:05:27.379Z,75.65
2018-08-12T08:07:27.343Z,72.56
2018-08-12T08:08:27.594Z,74.30
2018-08-12T08:09:27.343Z,75.40
2018-08-12T08:10:27.730Z,72.89
2018-08-12T08:11:27.430Z,70.67
2018-08-12T08:12:27.302Z,70.38
2018-08-12T08:13:27.430Z,69.03
2018-08-12T08:14:27.498Z,72.41
2018-08-12T08:15:27.313Z,71.06
2018-08-12T08:16:27.553Z,69.71
2018-08-12T08:18:27.282Z,69.51
2018-08-12T08:20:27.258Z,70.80
2018-08-12T08:22:27.479Z,68.81
2018-08-12T08:23:27.565Z,68.43
2018-08-12T08:26:27.551Z,62.92
2018-08-12T08:27:28.092Z,60.99
2018-08-12T08:28:27.296Z,60.80
2018-08-12T08:29:27.156Z,63.02
2018-08-12T08:30:27.160Z,61.96
2018-08-12T08:31:27.135Z,61.96
2018-08-12T08:32:27.628Z,60.80
2018-08-12T08:33:27.067Z,62.02
2018-08-12T08:34:27.395Z,62.25
2018-08-12T08:35:27.212Z,60.89
2018-08-12T08:36:27.049Z,60.51
2018-08-12T08:37:27.216Z,61.51
2018-08-12T08:38:27.123Z,61.12
2018-08-12T08:39:27.026Z,60.13
2018-08-12T08:40:27.006Z,59.83
2018-08-12T08:41:27.538Z,60.86
2018-08-12T08:42:26.991Z,62.60
2018-08-12T08:44:27.010Z,62.15
2018-08-12T08:45:26.998Z,61.96
2018-08-12T08:46:26.953Z,60.71
2018-08-12T08:47:26.931Z,61.19
2018-08-12T08:48:27.216Z,60.41
2018-08-12T08:49:26.912Z,60.61
2018-08-12T08:50:26.981Z,58.58
2018-08-12T08:51:26.888Z,57.32
2018-08-12T08:52:26.882Z,58.61
2018-08-12T08:53:26.913Z,58.25
2018-08-12T08:54:26.860Z,56.61
2018-08-12T08:55:27.150Z,57.38
2018-08-12T08:56:26.994Z,55.83
2018-08-12T08:58:26.910Z,57.74
2018-08-12T08:59:26.862Z,57.35
2018-08-12T09:00:26.819Z,58.10
2018-08-12T09:03:27.978Z,57.35
2018-08-12T09:05:26.846Z,56.87
2018-08-12T09:06:26.765Z,57.19
2018-08-12T09:07:26.744Z,57.87
2018-08-12T09:08:27.104Z,57.92
2018-08-12T09:09:26.905Z,56.37
2018-08-12T09:10:27.018Z,56.21
2018-08-12T09:11:26.698Z,54.27
2018-08-12T09:12:26.687Z,54.17
2018-08-12T09:13:26.803Z,54.63
2018-08-12T09:14:26.700Z,54.39
2018-08-12T09:15:27.048Z,55.65
2018-08-12T09:16:26.790Z,54.13
2018-08-12T09:17:26.995Z,54.63
2018-08-12T09:18:26.658Z,53.28
2018-08-12T09:19:26.677Z,52.99
2018-08-12T09:20:26.722Z,52.22
2018-08-12T09:21:26.661Z,52.29
2018-08-12T09:22:26.749Z,52.70
2018-08-12T09:23:26.944Z,52.99
2018-08-12T09:25:26.737Z,51.93
2018-08-12T09:26:26.724Z,51.73
2018-08-12T09:27:26.611Z,51.56
2018-08-12T09:28:27.091Z,51.73
2018-08-12T09:29:26.856Z,52.02
2018-08-12T09:30:26.675Z,52.41
2018-08-12T09:31:26.837Z,51.93
2018-08-12T09:32:26.809Z,51.06
2018-08-12T09:33:26.560Z,51.25
2018-08-12T09:34:26.708Z,51.61
2018-08-12T09:35:26.880Z,52.77
2018-08-12T09:36:26.477Z,52.89
2018-08-12T09:37:26.481Z,54.17
2018-08-12T09:39:26.608Z,51.40
2018-08-12T09:40:26.441Z,51.01
2018-08-12T09:42:26.764Z,49.75
2018-08-12T09:43:26.515Z,49.63
2018-08-12T09:44:26.549Z,50.60
2018-08-12T09:46:26.789Z,51.10
2018-08-12T09:47:29.402Z,51.20
2018-08-12T09:48:26.952Z,49.95
2018-08-12T09:50:26.644Z,48.42
2018-08-12T09:51:26.595Z,48.79
2018-08-12T09:52:26.409Z,50.65
2018-08-12T09:53:26.492Z,50.94
2018-08-12T09:55:26.628Z,50.55
2018-08-12T09:56:26.324Z,50.45
2018-08-12T09:57:26.483Z,49.99
2018-08-12T09:58:26.702Z,49.19
2018-08-12T09:59:26.367Z,49.75
2018-08-12T10:00:26.469Z,50.55
2018-08-12T10:02:26.745Z,49.02
2018-08-12T10:03:26.392Z,48.35
2018-08-12T10:04:26.622Z,46.51
2018-08-12T10:05:26.263Z,46.82
2018-08-12T10:06:26.247Z,46.72
2018-08-12T10:07:26.251Z,46.60
2018-08-12T10:08:26.269Z,48.47
2018-08-12T10:10:26.227Z,45.29
2018-08-12T10:11:26.214Z,45.78
2018-08-12T10:13:26.233Z,48.57
2018-08-12T10:15:26.583Z,48.42
2018-08-12T10:16:26.152Z,46.36
2018-08-12T10:18:26.160Z,47.98
2018-08-12T10:19:26.133Z,47.67
2018-08-12T10:20:26.125Z,49.73
2018-08-12T10:21:26.224Z,46.72
2018-08-12T10:23:26.603Z,48.42
2018-08-12T10:25:26.114Z,45.00
2018-08-12T10:26:26.082Z,45.51
2018-08-12T10:31:26.056Z,44.81
2018-08-12T10:33:26.124Z,45.39
2018-08-12T10:34:26.081Z,45.37
2018-08-12T10:35:26.358Z,48.27
2018-08-12T10:36:26.022Z,49.19
2018-08-12T10:37:26.431Z,46.65
2018-08-12T10:38:26.178Z,46.84
2018-08-12T10:39:26.198Z,46.62
2018-08-12T10:41:26.206Z,48.18
2018-08-12T10:42:26.093Z,47.42
2018-08-12T10:43:25.981Z,46.48
2018-08-12T10:44:26.289Z,46.14
2018-08-12T10:45:26.511Z,46.55
2018-08-12T10:46:25.950Z,46.53
2018-08-12T10:47:25.943Z,46.84
2018-08-12T10:48:25.941Z,47.74
2018-08-12T10:49:25.937Z,45.56
2018-08-12T10:50:26.138Z,46.77
2018-08-12T10:51:26.373Z,46.41
2018-08-12T10:52:25.914Z,45.53
2018-08-12T10:53:25.923Z,43.68
2018-08-12T10:54:26.009Z,44.54
2018-08-12T10:55:25.925Z,44.23
2018-08-12T10:56:25.903Z,44.05
2018-08-12T10:57:25.969Z,43.76
2018-08-12T10:58:26.199Z,44.07
2018-08-12T10:59:25.984Z,43.68
2018-08-12T11:00:25.866Z,43.61
2018-08-12T11:02:25.858Z,44.31
2018-08-12T11:03:26.051Z,43.78
2018-08-12T11:05:26.147Z,44.01
2018-08-12T11:06:25.842Z,45.48
2018-08-12T11:07:25.859Z,44.24
2018-08-12T11:09:25.872Z,45.62
2018-08-12T11:10:25.811Z,45.61
2018-08-12T11:11:26.106Z,44.54
2018-08-12T11:13:25.795Z,43.65
2018-08-12T11:14:25.790Z,42.99
2018-08-12T11:15:25.896Z,42.16
2018-08-12T11:16:25.788Z,39.92
2018-08-12T11:17:26.124Z,40.93
2018-08-12T11:19:25.775Z,40.82
2018-08-12T11:20:25.835Z,41.31
2018-08-12T11:21:25.903Z,40.80
2018-08-12T11:22:25.755Z,37.85
2018-08-12T11:23:26.255Z,37.65
2018-08-12T11:24:26.388Z,39.18
2018-08-12T11:25:26.026Z,40.33
2018-08-12T11:27:25.783Z,39.49
2018-08-12T11:28:25.774Z,39.76
2018-08-12T11:29:59.287Z,39.67
2018-08-12T11:31:25.711Z,41.06
2018-08-12T11:32:25.762Z,41.31
2018-08-12T11:33:25.779Z,41.31
2018-08-12T11:34:25.709Z,41.22
2018-08-12T11:35:32.283Z,42.26
2018-08-12T11:37:25.741Z,44.05
2018-08-12T11:43:25.670Z,41.47
2018-08-12T11:44:25.804Z,41.10
2018-08-12T11:46:25.649Z,41.59
2018-08-12T11:48:26.088Z,41.24
2018-08-12T11:49:25.631Z,42.96
2018-08-12T11:50:26.076Z,43.37
2018-08-12T11:51:25.669Z,43.68
2018-08-12T11:52:29.328Z,43.41
2018-08-12T11:53:25.707Z,42.54
2018-08-12T11:54:25.629Z,41.80
2018-08-12T11:55:25.905Z,40.68
2018-08-12T11:56:25.655Z,37.68
2018-08-12T11:58:25.586Z,40.86
2018-08-12T12:00:25.574Z,36.66
2018-08-12T12:01:25.572Z,36.98
2018-08-12T12:02:26.019Z,39.43
2018-08-12T12:03:25.675Z,38.10
2018-08-12T12:05:25.657Z,38.65
2018-08-12T12:07:25.550Z,39.76
2018-08-12T12:08:25.547Z,37.23
2018-08-12T12:09:26.494Z,37.25
2018-08-12T12:10:25.541Z,41.66
2018-08-12T12:11:25.533Z,37.60
2018-08-12T12:13:25.532Z,39.53
2018-08-12T12:14:25.527Z,43.49
2018-08-12T12:15:25.572Z,43.12
2018-08-12T12:16:25.546Z,42.78
2018-08-12T12:17:25.519Z,40.03
2018-08-12T12:18:25.518Z,40.31
2018-08-12T12:19:25.546Z,41.38
2018-08-12T12:20:25.520Z,41.18
2018-08-12T12:21:25.865Z,40.50
2018-08-12T12:22:25.538Z,41.71
2018-08-12T12:23:25.495Z,41.06
2018-08-12T12:24:25.596Z,39.80
2018-08-12T12:25:25.490Z,40.56
2018-08-12T12:26:25.489Z,41.10
2018-08-12T12:27:25.634Z,40.89
2018-08-12T12:28:25.798Z,41.36
2018-08-12T12:29:25.487Z,41.82
2018-08-12T12:30:25.476Z,41.82
2018-08-12T12:31:25.468Z,42.89
2018-08-12T12:32:25.457Z,43.54
2018-08-12T12:33:25.656Z,43.35
2018-08-12T12:34:26.962Z,43.84
2018-08-12T12:35:25.799Z,45.10
2018-08-12T12:36:25.443Z,43.62
2018-08-12T12:37:25.443Z,44.40
2018-08-12T12:38:25.531Z,44.18
2018-08-12T12:39:25.579Z,44.93
2018-08-12T12:40:25.420Z,46.80
2018-08-12T12:41:25.776Z,45.47
2018-08-12T12:42:25.488Z,45.07
2018-08-12T12:43:25.427Z,44.78
2018-08-12T12:44:25.398Z,44.61
2018-08-12T12:45:25.438Z,43.16
2018-08-12T12:46:25.389Z,42.99
2018-08-12T12:47:25.681Z,43.20
2018-08-12T12:48:25.399Z,41.84
2018-08-12T12:49:25.415Z,42.61
2018-08-12T12:50:26.120Z,42.61
2018-08-12T12:51:25.413Z,43.02
2018-08-12T12:52:25.359Z,43.01
2018-08-12T12:53:25.754Z,43.20
2018-08-12T12:54:25.395Z,43.18
2018-08-12T12:55:25.331Z,43.27
2018-08-12T12:56:25.410Z,43.66
2018-08-12T12:57:25.368Z,43.08
2018-08-12T12:58:25.322Z,44.03
2018-08-12T12:59:25.609Z,45.20
2018-08-12T13:00:25.309Z,45.10
2018-08-12T13:01:25.293Z,45.68
2018-08-12T13:02:25.294Z,45.07
2018-08-12T13:03:25.367Z,47.11
2018-08-12T13:04:25.291Z,45.48
2018-08-12T13:05:25.578Z,45.29
2018-08-12T13:06:25.279Z,45.20
2018-08-12T13:07:25.261Z,45.10
2018-08-12T13:08:25.244Z,44.90
2018-08-12T13:09:25.288Z,44.71
2018-08-12T13:10:25.238Z,45.75
2018-08-12T13:11:25.527Z,45.85
2018-08-12T13:12:25.293Z,46.75
2018-08-12T13:14:25.220Z,47.13
2018-08-12T13:15:25.305Z,45.31
2018-08-12T13:16:25.196Z,45.31
2018-08-12T13:17:25.686Z,45.10
2018-08-12T13:18:25.184Z,45.20
2018-08-12T13:19:25.166Z,45.31
2018-08-12T13:20:25.161Z,45.61
2018-08-12T13:21:25.357Z,45.12
2018-08-12T13:22:25.159Z,46.09
2018-08-12T13:26:25.437Z,45.82
2018-08-12T13:27:25.168Z,44.46
2018-08-12T13:28:25.153Z,44.58
2018-08-12T13:29:25.109Z,43.22
2018-08-12T13:30:25.100Z,43.73
2018-08-12T13:31:25.111Z,42.66
2018-08-12T13:32:25.080Z,43.73
2018-08-12T13:33:26.630Z,42.68
2018-08-12T13:34:25.075Z,41.44
2018-08-12T13:35:25.161Z,39.70
2018-08-12T13:36:25.078Z,42.53
2018-08-12T13:37:25.048Z,45.28
2018-08-12T13:39:25.094Z,39.22
2018-08-12T13:40:25.341Z,41.24
2018-08-12T13:42:25.036Z,41.14
2018-08-12T13:43:25.071Z,41.61
2018-08-12T13:44:25.088Z,41.49
2018-08-12T13:45:25.067Z,42.66
2018-08-12T13:46:25.071Z,43.12
2018-08-12T13:49:25.314Z,44.37
2018-08-12T13:50:25.060Z,44.17
2018-08-12T13:54:24.979Z,44.17
2018-08-12T13:56:25.299Z,44.56
2018-08-12T13:57:27.107Z,46.42
2018-08-12T13:58:24.950Z,45.18
2018-08-12T13:59:24.942Z,43.44
2018-08-12T14:01:25.043Z,42.95
2018-08-12T14:02:24.952Z,42.68
2018-08-12T14:03:25.280Z,42.58
2018-08-12T14:05:24.934Z,43.05
2018-08-12T14:06:24.979Z,44.09
2018-08-12T14:07:24.904Z,43.90
2018-08-12T14:08:24.904Z,43.90
2018-08-12T14:12:24.887Z,43.55
2018-08-12T14:13:24.889Z,42.58
2018-08-12T14:15:25.016Z,41.48
2018-08-12T14:17:25.165Z,41.28
2018-08-12T14:18:25.344Z,42.63
2018-08-12T14:19:25.067Z,41.16
2018-08-12T14:20:24.838Z,43.70
2018-08-12T14:21:24.983Z,40.89
2018-08-12T14:22:24.843Z,40.50
2018-08-12T14:24:25.125Z,41.67
2018-08-12T14:25:24.840Z,41.48
2018-08-12T14:26:24.812Z,42.18
2018-08-12T14:27:24.883Z,40.73
2018-08-12T14:28:24.815Z,39.75
2018-08-12T14:29:24.804Z,42.98
2018-08-12T14:30:25.108Z,44.97
2018-08-12T14:31:24.862Z,42.48
2018-08-12T14:33:24.854Z,37.91
2018-08-12T14:36:25.383Z,39.70
2018-08-12T14:37:24.823Z,38.82
2018-08-12T14:38:24.908Z,38.14
2018-08-12T14:40:24.842Z,40.72
2018-08-12T14:41:24.870Z,41.32
2018-08-12T14:42:25.094Z,40.23
2018-08-12T14:43:25.051Z,40.60
2018-08-12T14:44:25.126Z,40.13
2018-08-12T14:45:24.822Z,40.81
2018-08-12T14:46:24.768Z,39.26
2018-08-12T14:47:31.392Z,39.75
2018-08-12T14:49:26.251Z,40.83
2018-08-12T14:50:24.858Z,39.76
2018-08-12T14:51:24.976Z,39.18
2018-08-12T14:52:25.367Z,40.64
2018-08-12T14:54:25.061Z,39.94
2018-08-12T14:56:30.326Z,40.62
2018-08-12T14:58:24.807Z,41.50
2018-08-12T14:59:25.119Z,40.09
2018-08-12T15:00:25.069Z,41.44
2018-08-12T15:01:24.987Z,45.64
2018-08-12T15:02:24.828Z,43.71
2018-08-12T15:04:24.781Z,42.59
2018-08-12T15:05:24.762Z,40.72
2018-08-12T15:06:25.439Z,40.11
2018-08-12T15:07:27.130Z,41.24
2018-08-12T15:08:24.719Z,42.02
2018-08-12T15:09:24.772Z,44.57
2018-08-12T15:10:24.908Z,42.35
2018-08-12T15:11:24.714Z,40.70
2018-08-12T15:12:24.714Z,40.80
2018-08-12T15:13:24.703Z,41.65
2018-08-12T15:14:25.009Z,41.83
2018-08-12T15:15:24.805Z,42.82
2018-08-12T15:16:24.809Z,41.06
2018-08-12T15:19:24.754Z,41.94
2018-08-12T15:20:24.708Z,42.02
2018-08-12T15:22:24.914Z,44.06
2018-08-12T15:23:24.778Z,42.49
2018-08-12T15:24:24.706Z,44.82